Relevés horaires Jungfraujoch (Suisse)


Relevés horaires à Jungfraujoch - Mardi 24 Avr. 2012
Heure UTC1 Température [°C] Vent [km/h] Hum. [%] Pres.4 [hPa] Visi. [Km] Nébu. [octa] Préc.5 [mm] Cond.
2m. Res. Ros. Dir.2 Vit. Moy. Raf.3
23:00 -14.8 -26 -19.2 NO 31.5 35.2 77.8 69 700(0.9/3h) -- -- -- --
22:00 -15.1 -25.1 -16.4 NO 24.1 25.9 53.7 90 700(1.3/3h) -- -- -- --
21:00 -14.7 -23.4 -19.6 NNO 18.5 35.2 75.9 66 700(2.2/3h) -- -- -- --
20:00 -13.9 -23.2 -14.4 NNO 22.2 35.2 75.9 96 700(1.8/3h) -- -- -- --
19:00 -13.8 -23.5 -16.1 NNO 24.1 31.5 61.1 83 700(1.4/3h) -- -- -- --
18:00 -14.1 -25.6 -14.1 NNO 35.2 35.2 61.1 100 700(1.1/3h) 0 -- -- Légère neige continue
17:00 -13.8 -23.5 -14.6 NNO 24.1 25.9 48.2 94 700(1.5/3h) -- -- -- --
16:00 -13.4 -21.4 -13.8 N 16.7 20.4 38.9 97 700(1.7/3h) -- -- -- --
15:00 -13.3 -19.6 -14.2 N 11.1 25.9 61.1 93 700(1.8/3h) 0 -- -- Légère neige continue
14:00 -14.0 -22.1 -18.2 N 16.7 25.9 61.1 70 700(1.8/3h) -- -- -- --
13:00 -13.6 -22.9 -13.6 NO 22.2 25.9 46.3 100 700(1.8/3h) -- -- -- --
12:00 -13.9 -24.8 -16.7 NO 31.5 37.0 63.0 79 700(1.2/3h) 0 -- -- Légère neige continue
11:00 -14.7 -26.2 -16.0 N 33.3 33.3 63.0 90 700(0.9/3h) -- -- -- --
10:00 -14.2 -25.2 -14.2 N 31.5 37.0 61.1 100 700(0.3/3h) -- -- -- --
09:00 -14.7 -24.3 -16.9 NO 22.2 27.8 61.1 83 700(0.3/3h) 0.1 -- -- Légère neige continue
08:00 -14.3 -21.5 -18.7 NNO 13.0 18.5 55.6 69 700 -- -- -- --
07:00 -14.2 -24 -17.5 ONO 24.1 27.8 59.3 76 700(-0.4/3h) -- -- -- --
06:00 -14.1 -20.6 -24.8 NNO 11.1 33.3 70.4 40 700(-0.8/3h) -- -- -- --
05:00 -14.2 -24 -14.9 NNO 24.1 29.6 70.4 94 700(-1.7/3h) -- -- -- --
04:00 -13.2 -13.2 -15.2 OSO 3.7 7.4 20.4 85 700(-1.6/3h) -- -- -- --
03:00 -12.3 -19.5 -13.8 SSE 14.8 33.3 46.3 88 700(-1.9/3h) -- -- -- --
02:00 -12.3 -20 -13.2 SSE 16.7 29.6 38.9 93 700(-1.5/3h) -- -- -- --
01:00 -12.1 -22.7 -13.1 SSE 33.3 33.3 46.3 92 700(-1.4/3h) -- -- -- --
00:00 -12.1 -22.7 -13.1 SSE 33.3 38.9 92.6 92 700(-1.5/3h) -- -- -- --

1 Coordinated Universal Time. Actuellement il est 10:00 locale et 08:00 UTC.

2 Le vent souffle depuis la direction indiquée vers la direction oposée.

3 Les rafales max. sont disponible 40 min après l'heure du relevé.

4 Pour les stations d'altitude (plus de 600m) le géopotentiel du niveau le plus proche de la pression obligatoire est indiqué.

5 Les stations disposant d'un diffuseur peuvent indiquer "trace". Cela signifie que des précipitations ont touchés le sol mais que la quantité est inférieure à 0.1 mm.

Copyright

Les données affichées sur cette page sont la propriété exclusive de Météo Suisse.

Récapitulatif de la journée
Température [°C] Vent [km/h] Ensoleillement4 [h] Precipitations totale5 [mm] Pression [Hpa]
Min1 Max.2 Moy.3 Max. Min Max.
-14.8 -12.5 29.5 92.6 0 h 0 min 0 700.0 700.0

1 Température minimale relevée entre 18:00 UTC la veille et 18:00 UTC le jour donné.

2 Température maximale relevée entre 06:00 UTC le jour donné et 06:00 UTC le lendemain.

3 Vent moyen de la journée basé sur les relevés horaires.

4 Ensoleillement en heures relevé entre 06:00 UTC la veille et 06:00 UTC le jour donné.

5 Précipitations totales tombées entre 06:00 UTC la jour donné et 06:00 UTC le lendemain.

Graphiques horaires